Time;durP1;ratioP1;P1;durP2;ratioP2;P2;SDS_P1;SDS_P2;PMS_P1;PMS_P2;Temp;Humidity;BMP_temperature;BMP_pressure;BME280_temperature;BME280_humidity;BME280_pressure;Samples;Min_cycle;Max_cycle;Signal;HPM_P1;HPM_P2
2022/09/23 00:01:03;;;;;;;;;;;21.00;42.60;;;;;;485289;245;1322;-49
2022/09/23 00:03:05;;;;;;;;;;;21.10;42.60;;;;;;485799;245;1246;-50
2022/09/23 00:05:06;;;;;;;;;;;21.00;42.60;;;;;;485779;245;1314;-50
2022/09/23 00:07:07;;;;;;;;;;;21.00;42.60;;;;;;485766;245;1214;-50
2022/09/23 00:09:09;;;;;;;;;;;21.00;42.60;;;;;;485778;245;1537;-50
2022/09/23 00:11:10;;;;;;;;;;;21.00;42.60;;;;;;485510;245;1308;-49
2022/09/23 00:13:11;;;;;;;;;;;21.00;42.70;;;;;;485331;245;1329;-50
2022/09/23 00:15:13;;;;;;;;;;;21.00;42.70;;;;;;485500;245;2144;-50
2022/09/23 00:17:14;;;;;;;;;;;21.00;42.60;;;;;;485751;245;1317;-50
2022/09/23 00:19:15;;;;;;;;;;;21.00;42.60;;;;;;485484;245;1384;-50
2022/09/23 00:21:17;;;;;;;;;;;21.00;42.60;;;;;;485306;245;1359;-49
2022/09/23 00:23:18;;;;;;;;;;;21.00;42.60;;;;;;485776;245;1267;-49
2022/09/23 00:25:19;;;;;;;;;;;21.00;42.60;;;;;;485449;245;1486;-49
2022/09/23 00:27:21;;;;;;;;;;;21.00;42.60;;;;;;485322;245;1306;-49
2022/09/23 00:29:22;;;;;;;;;;;21.00;42.60;;;;;;485482;245;1396;-50
2022/09/23 00:31:23;;;;;;;;;;;21.00;42.70;;;;;;485717;245;1335;-50
2022/09/23 00:33:24;;;;;;;;;;;21.00;42.70;;;;;;485304;245;1280;-49
2022/09/23 00:35:26;;;;;;;;;;;21.00;42.60;;;;;;485759;245;2261;-49
2022/09/23 00:37:27;;;;;;;;;;;21.00;42.70;;;;;;485780;245;1155;-50
2022/09/23 00:39:29;;;;;;;;;;;21.00;42.60;;;;;;485775;245;1193;-50
2022/09/23 00:41:30;;;;;;;;;;;21.00;42.70;;;;;;485536;245;1299;-49
2022/09/23 00:43:32;;;;;;;;;;;21.00;42.70;;;;;;485772;245;1232;-48
2022/09/23 00:45:32;;;;;;;;;;;21.00;42.70;;;;;;485628;245;1399;-49
2022/09/23 00:47:34;;;;;;;;;;;21.00;42.70;;;;;;485706;245;1279;-50
2022/09/23 00:49:35;;;;;;;;;;;21.00;42.70;;;;;;485781;245;1234;-50
2022/09/23 00:51:36;;;;;;;;;;;21.00;42.60;;;;;;485755;245;1426;-50
2022/09/23 00:53:38;;;;;;;;;;;21.00;42.70;;;;;;485406;245;1236;-49
2022/09/23 00:55:39;;;;;;;;;;;21.00;42.70;;;;;;485698;245;2151;-50
2022/09/23 00:57:40;;;;;;;;;;;21.00;42.60;;;;;;485304;245;1156;-50
2022/09/23 00:59:42;;;;;;;;;;;21.00;42.50;;;;;;485650;245;1339;-50
2022/09/23 01:01:43;;;;;;;;;;;21.00;42.40;;;;;;485589;245;1432;-50
2022/09/23 01:03:44;;;;;;;;;;;21.00;42.40;;;;;;485755;245;1244;-49
2022/09/23 01:05:46;;;;;;;;;;;21.00;42.30;;;;;;485739;245;1318;-48
2022/09/23 01:07:47;;;;;;;;;;;21.00;42.20;;;;;;485772;245;1336;-50
2022/09/23 01:09:48;;;;;;;;;;;21.10;42.20;;;;;;485738;245;1438;-49
2022/09/23 01:11:50;;;;;;;;;;;21.00;42.00;;;;;;485506;245;1240;-50
2022/09/23 01:13:51;;;;;;;;;;;21.00;42.10;;;;;;485755;245;1210;-50
2022/09/23 01:15:52;;;;;;;;;;;21.10;42.10;;;;;;485307;245;2188;-49
2022/09/23 01:17:54;;;;;;;;;;;21.10;42.00;;;;;;485337;245;1599;-49
2022/09/23 01:19:55;;;;;;;;;;;21.10;41.90;;;;;;485780;245;1220;-50
2022/09/23 01:21:56;;;;;;;;;;;21.10;41.80;;;;;;485739;245;1779;-49
2022/09/23 01:23:58;;;;;;;;;;;21.10;41.80;;;;;;485799;245;1090;-50
2022/09/23 01:25:59;;;;;;;;;;;21.10;41.80;;;;;;485758;245;1186;-49
2022/09/23 01:28:00;;;;;;;;;;;21.10;41.80;;;;;;485325;245;1260;-50
2022/09/23 01:30:02;;;;;;;;;;;21.10;41.70;;;;;;485770;245;1431;-51
2022/09/23 01:32:03;;;;;;;;;;;21.10;41.60;;;;;;485754;245;2433;-49
2022/09/23 01:34:05;;;;;;;;;;;21.20;41.50;;;;;;485780;245;1300;-49
2022/09/23 01:36:06;;;;;;;;;;;21.10;41.50;;;;;;485391;245;2155;-50
2022/09/23 01:38:07;;;;;;;;;;;21.10;41.40;;;;;;485777;245;1250;-49
2022/09/23 01:40:09;;;;;;;;;;;21.10;41.40;;;;;;485751;245;1278;-49
2022/09/23 01:42:10;;;;;;;;;;;21.10;41.40;;;;;;485541;245;1286;-49
2022/09/23 01:44:11;;;;;;;;;;;21.10;41.30;;;;;;485299;245;1297;-49
2022/09/23 01:46:13;;;;;;;;;;;21.10;41.30;;;;;;485754;245;1248;-50
2022/09/23 01:48:14;;;;;;;;;;;21.10;41.30;;;;;;485397;245;1813;-49
2022/09/23 01:52:36;;;;;;;;;;;21.10;41.20;;;;;;485236;246;1681;-50
2022/09/23 01:54:37;;;;;;;;;;;21.20;41.20;;;;;;485738;245;1305;-50
2022/09/23 01:56:39;;;;;;;;;;;21.20;41.10;;;;;;485702;245;2191;-49
2022/09/23 01:58:41;;;;;;;;;;;21.20;41.10;;;;;;485744;245;1459;-49
2022/09/23 02:00:42;;;;;;;;;;;21.20;41.00;;;;;;485780;245;1196;-50
2022/09/23 02:02:48;;;;;;;;;;;21.10;40.90;;;;;;485395;245;1371;-50
2022/09/23 02:04:45;;;;;;;;;;;21.10;40.90;;;;;;485012;246;2138;-49
2022/09/23 02:06:46;;;;;;;;;;;21.10;40.90;;;;;;485302;245;2145;-50
2022/09/23 02:08:47;;;;;;;;;;;21.10;40.90;;;;;;485532;245;1244;-49
2022/09/23 02:10:49;;;;;;;;;;;21.10;40.90;;;;;;485390;245;1256;-49
2022/09/23 02:12:50;;;;;;;;;;;21.20;40.90;;;;;;485501;245;1463;-50
2022/09/23 02:14:52;;;;;;;;;;;21.20;40.80;;;;;;485220;245;1551;-50
2022/09/23 02:16:54;;;;;;;;;;;21.20;40.80;;;;;;485761;245;2128;-49
2022/09/23 02:18:55;;;;;;;;;;;21.10;40.70;;;;;;485758;245;1295;-49
2022/09/23 02:20:57;;;;;;;;;;;21.20;40.70;;;;;;485399;245;1406;-50
2022/09/23 02:23:00;;;;;;;;;;;21.10;40.60;;;;;;485730;245;1294;-49
2022/09/23 02:24:59;;;;;;;;;;;21.20;40.70;;;;;;485234;246;2460;-50
2022/09/23 02:27:00;;;;;;;;;;;21.20;40.70;;;;;;485437;245;1287;-49
2022/09/23 02:29:02;;;;;;;;;;;21.20;40.60;;;;;;485688;245;1300;-50
2022/09/23 02:31:03;;;;;;;;;;;21.10;40.50;;;;;;485802;245;1214;-49
2022/09/23 02:33:05;;;;;;;;;;;21.20;40.50;;;;;;485426;245;1300;-50
2022/09/23 02:35:06;;;;;;;;;;;21.10;40.40;;;;;;485301;246;2400;-49
2022/09/23 02:37:07;;;;;;;;;;;21.20;40.50;;;;;;485546;245;1310;-49
2022/09/23 02:39:08;;;;;;;;;;;21.20;40.40;;;;;;485789;245;1254;-50
2022/09/23 02:41:10;;;;;;;;;;;21.20;40.40;;;;;;485806;245;1206;-49
2022/09/23 02:43:11;;;;;;;;;;;21.20;40.40;;;;;;485488;245;1238;-49
2022/09/23 02:45:13;;;;;;;;;;;21.20;40.30;;;;;;485413;245;1319;-50
2022/09/23 02:47:14;;;;;;;;;;;21.20;40.30;;;;;;485324;245;1308;-50
2022/09/23 02:49:16;;;;;;;;;;;21.10;40.40;;;;;;485779;245;1332;-49
2022/09/23 02:51:16;;;;;;;;;;;21.10;40.40;;;;;;485736;245;1849;-50
2022/09/23 02:53:18;;;;;;;;;;;21.20;40.50;;;;;;485782;245;1184;-50
2022/09/23 02:55:21;;;;;;;;;;;21.20;40.40;;;;;;485784;245;2155;-49
2022/09/23 02:57:20;;;;;;;;;;;21.20;40.40;;;;;;485293;246;2207;-49
2022/09/23 02:59:22;;;;;;;;;;;21.20;40.30;;;;;;485467;245;1085;-49
2022/09/23 03:01:25;;;;;;;;;;;21.20;40.30;;;;;;485345;245;1313;-49
2022/09/23 03:03:25;;;;;;;;;;;21.20;40.20;;;;;;485745;246;1921;-49
2022/09/23 03:05:26;;;;;;;;;;;21.20;40.30;;;;;;485353;245;1318;-50
2022/09/23 03:07:31;;;;;;;;;;;21.20;40.20;;;;;;485610;245;1458;-50
2022/09/23 03:09:29;;;;;;;;;;;21.20;40.20;;;;;;485482;246;2354;-50
2022/09/23 03:11:31;;;;;;;;;;;21.20;40.20;;;;;;485383;245;1209;-49
2022/09/23 03:13:34;;;;;;;;;;;21.20;40.20;;;;;;485338;245;1857;-49
2022/09/23 03:15:34;;;;;;;;;;;21.20;40.10;;;;;;485633;245;2147;-49
2022/09/23 03:17:36;;;;;;;;;;;21.20;40.10;;;;;;485737;246;2208;-49
2022/09/23 03:19:36;;;;;;;;;;;21.20;40.10;;;;;;485341;245;2353;-49
2022/09/23 03:21:37;;;;;;;;;;;21.20;40.00;;;;;;485363;245;1348;-50
2022/09/23 03:23:38;;;;;;;;;;;21.20;40.10;;;;;;485452;245;1216;-49
2022/09/23 03:25:41;;;;;;;;;;;21.20;40.00;;;;;;485810;245;1210;-50
2022/09/23 03:27:41;;;;;;;;;;;21.20;40.00;;;;;;485710;245;1446;-51
2022/09/23 03:29:44;;;;;;;;;;;21.20;39.90;;;;;;485352;245;1273;-50
2022/09/23 03:31:44;;;;;;;;;;;21.20;39.90;;;;;;485251;245;2116;-51
2022/09/23 03:33:45;;;;;;;;;;;21.20;39.90;;;;;;485366;245;1244;-49
2022/09/23 03:38:07;;;;;;;;;;;21.20;39.90;;;;;;485406;246;2543;-50
2022/09/23 03:40:08;;;;;;;;;;;21.20;39.80;;;;;;485387;245;1211;-50
2022/09/23 03:42:15;;;;;;;;;;;21.20;39.80;;;;;;485467;245;1466;-50
2022/09/23 03:44:12;;;;;;;;;;;21.20;39.80;;;;;;485017;245;2331;-49
2022/09/23 03:46:17;;;;;;;;;;;21.20;39.70;;;;;;485789;245;1241;-50
2022/09/23 03:48:15;;;;;;;;;;;21.20;39.70;;;;;;485263;246;1606;-49
2022/09/23 03:50:16;;;;;;;;;;;21.20;39.70;;;;;;485791;245;1254;-50
2022/09/23 03:52:18;;;;;;;;;;;21.20;39.60;;;;;;485349;245;1186;-50
2022/09/23 03:54:19;;;;;;;;;;;21.20;39.70;;;;;;485801;245;1217;-49
2022/09/23 03:56:20;;;;;;;;;;;21.20;39.70;;;;;;485774;245;2202;-49
2022/09/23 03:58:22;;;;;;;;;;;21.20;39.60;;;;;;485720;245;1306;-50
2022/09/23 04:00:23;;;;;;;;;;;21.20;39.60;;;;;;485305;245;1208;-49
2022/09/23 04:02:25;;;;;;;;;;;21.20;39.60;;;;;;485768;245;1120;-49
2022/09/23 04:04:26;;;;;;;;;;;21.20;39.60;;;;;;485307;245;1201;-50
2022/09/23 04:06:27;;;;;;;;;;;21.10;39.70;;;;;;485358;245;1091;-50
2022/09/23 04:08:29;;;;;;;;;;;21.10;39.70;;;;;;485350;245;1155;-49
2022/09/23 04:10:30;;;;;;;;;;;21.10;39.70;;;;;;485349;245;1083;-50
2022/09/23 04:12:31;;;;;;;;;;;21.10;39.60;;;;;;485640;245;1216;-50
2022/09/23 04:14:33;;;;;;;;;;;21.20;39.60;;;;;;485507;245;1097;-50
2022/09/23 04:16:34;;;;;;;;;;;21.20;39.60;;;;;;485792;245;2147;-50
2022/09/23 04:18:35;;;;;;;;;;;21.10;39.60;;;;;;485428;245;1030;-49
2022/09/23 04:20:37;;;;;;;;;;;21.20;39.60;;;;;;485681;245;1096;-50
2022/09/23 04:22:38;;;;;;;;;;;21.10;39.40;;;;;;485783;245;1101;-49
2022/09/23 04:24:39;;;;;;;;;;;21.20;39.50;;;;;;485780;245;1115;-49
2022/09/23 04:26:41;;;;;;;;;;;21.20;39.50;;;;;;485408;245;1116;-50
2022/09/23 04:28:42;;;;;;;;;;;21.20;39.40;;;;;;485693;245;1213;-50
2022/09/23 04:30:44;;;;;;;;;;;21.20;39.40;;;;;;485556;245;1052;-49
2022/09/23 04:32:45;;;;;;;;;;;21.20;39.40;;;;;;485243;245;1881;-50
2022/09/23 04:34:46;;;;;;;;;;;21.20;39.60;;;;;;485349;245;1055;-50
2022/09/23 04:36:47;;;;;;;;;;;21.10;39.80;;;;;;485538;245;2156;-50
2022/09/23 04:38:49;;;;;;;;;;;21.10;39.90;;;;;;485313;245;1324;-50
2022/09/23 04:40:50;;;;;;;;;;;21.10;40.00;;;;;;485322;245;1472;-50
2022/09/23 04:42:51;;;;;;;;;;;21.10;40.10;;;;;;485695;245;1323;-49
2022/09/23 04:44:53;;;;;;;;;;;21.10;40.20;;;;;;485469;245;1573;-49
2022/09/23 04:46:54;;;;;;;;;;;21.10;40.20;;;;;;485339;245;1337;-50
2022/09/23 04:48:55;;;;;;;;;;;21.10;40.20;;;;;;485349;245;1292;-49
2022/09/23 04:50:57;;;;;;;;;;;21.10;40.20;;;;;;485718;245;1258;-49
2022/09/23 04:52:58;;;;;;;;;;;21.10;40.30;;;;;;485754;245;1251;-50
2022/09/23 04:54:59;;;;;;;;;;;21.10;40.30;;;;;;485720;245;1376;-49
2022/09/23 04:57:01;;;;;;;;;;;21.10;40.40;;;;;;485739;245;2140;-50
2022/09/23 04:59:02;;;;;;;;;;;21.10;40.40;;;;;;485449;245;1279;-49
2022/09/23 05:01:05;;;;;;;;;;;21.10;40.40;;;;;;485737;245;1211;-49
2022/09/23 05:03:05;;;;;;;;;;;21.10;40.40;;;;;;485232;246;2456;-50
2022/09/23 05:05:06;;;;;;;;;;;21.10;40.50;;;;;;485298;245;1300;-50
2022/09/23 05:07:09;;;;;;;;;;;21.10;40.50;;;;;;485767;245;1339;-49
2022/09/23 05:09:09;;;;;;;;;;;21.10;40.60;;;;;;485282;246;2569;-50
2022/09/23 05:11:10;;;;;;;;;;;21.10;40.60;;;;;;485226;245;1270;-50
2022/09/23 05:13:12;;;;;;;;;;;21.10;40.60;;;;;;485683;245;1221;-49
2022/09/23 05:15:13;;;;;;;;;;;21.10;40.60;;;;;;485256;245;1214;-49
2022/09/23 05:17:15;;;;;;;;;;;21.10;40.60;;;;;;485702;245;2206;-50
2022/09/23 05:19:16;;;;;;;;;;;21.10;40.60;;;;;;485466;245;1327;-50
2022/09/23 05:21:17;;;;;;;;;;;21.00;40.60;;;;;;485624;245;1367;-49
2022/09/23 05:23:19;;;;;;;;;;;21.10;40.70;;;;;;485497;245;1240;-49
2022/09/23 05:25:20;;;;;;;;;;;21.10;40.70;;;;;;485535;245;1300;-49
2022/09/23 05:27:21;;;;;;;;;;;21.10;40.70;;;;;;485530;245;1204;-50
2022/09/23 05:29:23;;;;;;;;;;;21.00;40.70;;;;;;485669;245;1294;-49
2022/09/23 05:31:24;;;;;;;;;;;21.10;40.70;;;;;;485176;245;1264;-50
2022/09/23 05:33:26;;;;;;;;;;;21.00;40.70;;;;;;485297;245;1253;-49
2022/09/23 05:35:27;;;;;;;;;;;21.10;40.70;;;;;;485303;245;1195;-50
2022/09/23 05:37:28;;;;;;;;;;;21.10;40.70;;;;;;485509;245;2180;-50
2022/09/23 05:39:29;;;;;;;;;;;21.10;40.80;;;;;;485461;245;1182;-49
2022/09/23 05:41:31;;;;;;;;;;;21.10;40.80;;;;;;485309;245;1217;-49
2022/09/23 05:43:32;;;;;;;;;;;21.10;40.80;;;;;;485621;245;1249;-50
2022/09/23 05:45:34;;;;;;;;;;;21.10;40.80;;;;;;485267;245;1204;-49
2022/09/23 05:47:35;;;;;;;;;;;21.10;40.80;;;;;;485630;245;1446;-49
2022/09/23 05:49:36;;;;;;;;;;;21.10;40.80;;;;;;485766;245;1323;-49
2022/09/23 05:51:37;;;;;;;;;;;21.10;40.80;;;;;;485568;245;1280;-50
2022/09/23 05:53:39;;;;;;;;;;;21.10;40.80;;;;;;485553;245;1288;-49
2022/09/23 05:55:40;;;;;;;;;;;21.10;40.90;;;;;;485737;245;1413;-49
2022/09/23 05:57:41;;;;;;;;;;;21.10;40.90;;;;;;485489;245;2187;-49
2022/09/23 05:59:46;;;;;;;;;;;21.00;40.90;;;;;;485347;245;1269;-50
2022/09/23 06:01:45;;;;;;;;;;;21.10;40.90;;;;;;485036;246;2464;-50
2022/09/23 06:03:46;;;;;;;;;;;21.10;40.90;;;;;;485460;245;1280;-50
2022/09/23 06:05:48;;;;;;;;;;;21.10;40.90;;;;;;485216;245;1313;-50
2022/09/23 06:07:49;;;;;;;;;;;21.10;40.90;;;;;;485259;245;1213;-49
2022/09/23 06:09:50;;;;;;;;;;;21.10;40.90;;;;;;485641;245;1188;-49
2022/09/23 06:11:52;;;;;;;;;;;21.00;40.90;;;;;;485364;245;1237;-50
2022/09/23 06:13:53;;;;;;;;;;;21.10;40.90;;;;;;485239;245;1299;-49
2022/09/23 06:15:54;;;;;;;;;;;21.10;40.90;;;;;;485206;245;1499;-51
2022/09/23 06:17:55;;;;;;;;;;;21.00;40.90;;;;;;485282;245;2199;-52
2022/09/23 06:19:57;;;;;;;;;;;21.10;40.90;;;;;;485228;245;1383;-51
2022/09/23 06:21:58;;;;;;;;;;;21.10;40.90;;;;;;485521;245;1271;-52
2022/09/23 06:24:00;;;;;;;;;;;21.10;40.90;;;;;;485187;245;1189;-51
2022/09/23 06:26:01;;;;;;;;;;;21.10;40.80;;;;;;485400;245;1263;-51
2022/09/23 06:28:02;;;;;;;;;;;21.10;40.90;;;;;;485253;245;1207;-52
2022/09/23 06:30:04;;;;;;;;;;;21.00;40.80;;;;;;485427;245;1201;-51
2022/09/23 06:32:05;;;;;;;;;;;21.00;40.90;;;;;;485195;245;1272;-51
2022/09/23 06:34:06;;;;;;;;;;;21.00;40.80;;;;;;485502;245;1427;-51
2022/09/23 06:36:08;;;;;;;;;;;21.10;40.90;;;;;;485438;245;1248;-51
2022/09/23 06:38:09;;;;;;;;;;;21.10;40.90;;;;;;485201;245;2187;-51
2022/09/23 06:40:10;;;;;;;;;;;21.10;40.90;;;;;;485366;245;1289;-51
2022/09/23 06:42:12;;;;;;;;;;;21.10;40.90;;;;;;485633;245;1221;-51
2022/09/23 06:44:13;;;;;;;;;;;21.10;40.90;;;;;;485398;245;1215;-52
2022/09/23 06:46:15;;;;;;;;;;;21.10;40.90;;;;;;485238;245;1235;-50
2022/09/23 06:48:16;;;;;;;;;;;21.10;40.90;;;;;;485250;245;1265;-49
2022/09/23 06:50:17;;;;;;;;;;;21.10;40.90;;;;;;485122;245;1325;-49
2022/09/23 06:52:19;;;;;;;;;;;21.10;40.90;;;;;;485312;245;1362;-49
2022/09/23 06:54:20;;;;;;;;;;;21.00;40.90;;;;;;485222;245;1748;-49
2022/09/23 06:56:22;;;;;;;;;;;21.00;40.90;;;;;;485531;245;1273;-50
2022/09/23 06:58:23;;;;;;;;;;;21.00;40.90;;;;;;485495;245;2202;-49
2022/09/23 07:00:25;;;;;;;;;;;21.00;40.90;;;;;;485342;242;1293;-50
2022/09/23 07:02:26;;;;;;;;;;;21.10;40.90;;;;;;485185;245;1460;-50
2022/09/23 07:04:27;;;;;;;;;;;21.10;40.90;;;;;;503493;237;1323;-50
2022/09/23 07:06:28;;;;;;;;;;;21.10;41.00;;;;;;503812;237;1340;-50
2022/09/23 07:08:30;;;;;;;;;;;21.10;41.00;;;;;;503552;237;1191;-51
2022/09/23 07:10:31;;;;;;;;;;;21.00;40.90;;;;;;480289;247;1194;-50
2022/09/23 07:12:32;;;;;;;;;;;21.10;41.00;;;;;;489032;243;1264;-49
2022/09/23 07:14:34;;;;;;;;;;;21.10;41.00;;;;;;479893;248;1254;-50
2022/09/23 07:16:35;;;;;;;;;;;21.00;40.90;;;;;;485196;246;1167;-49
2022/09/23 07:18:36;;;;;;;;;;;21.10;40.90;;;;;;485088;245;2199;-49
2022/09/23 07:20:38;;;;;;;;;;;21.10;41.00;;;;;;485266;245;1093;-50
2022/09/23 07:22:39;;;;;;;;;;;21.10;41.00;;;;;;485397;245;1093;-50
2022/09/23 07:24:40;;;;;;;;;;;21.10;41.00;;;;;;485447;245;1130;-50
2022/09/23 07:26:41;;;;;;;;;;;21.10;41.00;;;;;;485321;245;1153;-50
2022/09/23 07:28:43;;;;;;;;;;;21.10;41.00;;;;;;485151;245;1126;-49
2022/09/23 07:30:44;;;;;;;;;;;21.10;40.90;;;;;;485402;245;1121;-50
2022/09/23 07:32:45;;;;;;;;;;;21.10;40.90;;;;;;485185;245;1152;-49
2022/09/23 07:34:47;;;;;;;;;;;21.10;41.00;;;;;;485290;245;1287;-50
2022/09/23 07:36:48;;;;;;;;;;;21.10;41.00;;;;;;485240;245;2184;-51
2022/09/23 07:38:49;;;;;;;;;;;21.10;41.00;;;;;;485190;245;1304;-49
2022/09/23 07:40:51;;;;;;;;;;;21.10;41.00;;;;;;485202;245;1140;-50
2022/09/23 07:42:52;;;;;;;;;;;21.10;41.00;;;;;;485181;245;1210;-49
2022/09/23 07:44:54;;;;;;;;;;;21.10;41.00;;;;;;485460;245;1298;-50
2022/09/23 07:46:55;;;;;;;;;;;21.10;41.10;;;;;;485154;245;1235;-50
2022/09/23 07:48:56;;;;;;;;;;;21.10;41.00;;;;;;485074;245;1272;-49
2022/09/23 07:50:59;;;;;;;;;;;21.10;41.00;;;;;;485081;245;1300;-50
2022/09/23 07:53:01;;;;;;;;;;;21.10;41.00;;;;;;485137;245;1895;-50
2022/09/23 07:55:01;;;;;;;;;;;21.10;41.00;;;;;;484895;246;2397;-49
2022/09/23 07:57:02;;;;;;;;;;;21.20;41.10;;;;;;485010;245;2132;-50
2022/09/23 07:59:03;;;;;;;;;;;21.10;41.10;;;;;;485150;245;1176;-50
2022/09/23 08:01:05;;;;;;;;;;;21.20;41.10;;;;;;485197;245;1225;-49
2022/09/23 08:03:06;;;;;;;;;;;21.20;41.10;;;;;;485130;245;1313;-50
2022/09/23 08:05:08;;;;;;;;;;;21.10;41.10;;;;;;485250;245;1238;-50
2022/09/23 08:07:09;;;;;;;;;;;21.10;41.10;;;;;;485481;245;1248;-50
2022/09/23 08:09:10;;;;;;;;;;;21.10;41.10;;;;;;484955;245;1186;-49
2022/09/23 08:11:12;;;;;;;;;;;21.20;41.20;;;;;;485338;245;1251;-49
2022/09/23 08:13:12;;;;;;;;;;;21.20;41.20;;;;;;485085;245;1265;-49
2022/09/23 08:15:14;;;;;;;;;;;21.20;41.20;;;;;;485156;245;1248;-49
2022/09/23 08:17:15;;;;;;;;;;;21.10;41.10;;;;;;485111;245;2163;-49
2022/09/23 08:19:16;;;;;;;;;;;21.20;41.20;;;;;;485533;245;1315;-49
2022/09/23 08:21:18;;;;;;;;;;;21.20;41.20;;;;;;485233;245;1207;-49
2022/09/23 08:23:19;;;;;;;;;;;21.20;41.20;;;;;;485110;245;1201;-49
2022/09/23 08:25:21;;;;;;;;;;;21.20;41.20;;;;;;485088;245;1216;-49
2022/09/23 08:27:22;;;;;;;;;;;21.20;41.20;;;;;;485140;245;1381;-50
2022/09/23 08:29:23;;;;;;;;;;;21.20;41.20;;;;;;485120;245;1224;-51
2022/09/23 08:31:24;;;;;;;;;;;21.20;41.20;;;;;;485156;245;1104;-52
2022/09/23 08:33:26;;;;;;;;;;;21.20;41.20;;;;;;485154;245;1269;-52
2022/09/23 08:35:27;;;;;;;;;;;21.20;41.20;;;;;;485224;245;1120;-52
2022/09/23 08:37:28;;;;;;;;;;;21.20;41.20;;;;;;485205;245;2199;-52
2022/09/23 08:39:30;;;;;;;;;;;21.20;41.20;;;;;;485193;245;1260;-52
2022/09/23 08:41:31;;;;;;;;;;;21.20;41.30;;;;;;485199;245;1302;-52
2022/09/23 08:43:32;;;;;;;;;;;21.20;41.30;;;;;;485067;245;1209;-52
2022/09/23 08:45:34;;;;;;;;;;;21.20;41.20;;;;;;485110;245;1158;-51
2022/09/23 08:47:35;;;;;;;;;;;21.20;41.30;;;;;;485289;246;1257;-51
2022/09/23 08:49:38;;;;;;;;;;;21.10;41.30;;;;;;485112;245;1217;-52
2022/09/23 08:51:39;;;;;;;;;;;21.20;41.40;;;;;;485210;245;2252;-52
2022/09/23 08:53:41;;;;;;;;;;;21.20;41.40;;;;;;485324;245;1212;-52
2022/09/23 08:55:42;;;;;;;;;;;21.20;41.40;;;;;;485233;245;1196;-49
2022/09/23 08:57:43;;;;;;;;;;;21.20;41.40;;;;;;485415;245;2152;-49
2022/09/23 08:59:45;;;;;;;;;;;21.20;41.40;;;;;;485158;245;1150;-50
2022/09/23 09:01:46;;;;;;;;;;;21.20;41.40;;;;;;485121;245;1219;-50
2022/09/23 09:03:47;;;;;;;;;;;21.20;41.40;;;;;;485007;245;1256;-50
2022/09/23 09:05:49;;;;;;;;;;;21.20;41.40;;;;;;485023;245;1281;-50
2022/09/23 09:07:50;;;;;;;;;;;21.20;41.40;;;;;;484998;245;1338;-50
2022/09/23 09:09:51;;;;;;;;;;;21.20;41.40;;;;;;485055;245;1163;-50
2022/09/23 09:11:53;;;;;;;;;;;21.20;41.40;;;;;;485203;245;1221;-49
2022/09/23 09:13:54;;;;;;;;;;;21.20;41.40;;;;;;485111;245;1193;-49
2022/09/23 09:15:55;;;;;;;;;;;21.10;41.40;;;;;;485248;245;1269;-50
2022/09/23 09:17:58;;;;;;;;;;;21.20;41.50;;;;;;485280;245;2171;-49
2022/09/23 09:20:00;;;;;;;;;;;21.20;41.50;;;;;;485207;245;2302;-49
2022/09/23 09:21:59;;;;;;;;;;;21.10;41.40;;;;;;485100;246;2260;-50
2022/09/23 09:24:00;;;;;;;;;;;21.20;41.50;;;;;;485594;242;1174;-50
2022/09/23 09:26:02;;;;;;;;;;;21.20;41.50;;;;;;485224;245;1252;-50
2022/09/23 09:28:03;;;;;;;;;;;21.20;41.50;;;;;;485242;245;1237;-51
2022/09/23 09:30:05;;;;;;;;;;;21.20;41.50;;;;;;485623;245;1255;-51
2022/09/23 09:32:06;;;;;;;;;;;21.20;41.60;;;;;;485122;245;2115;-51
2022/09/23 09:34:07;;;;;;;;;;;21.20;41.60;;;;;;485126;245;1377;-50
2022/09/23 09:36:08;;;;;;;;;;;21.10;41.60;;;;;;485546;245;1338;-50
2022/09/23 09:38:10;;;;;;;;;;;21.20;41.50;;;;;;485091;245;2164;-50
2022/09/23 09:40:11;;;;;;;;;;;21.20;41.60;;;;;;485052;245;1280;-51
2022/09/23 09:42:12;;;;;;;;;;;21.20;41.60;;;;;;485311;245;1265;-50
2022/09/23 09:44:14;;;;;;;;;;;21.20;41.60;;;;;;485179;245;1280;-51
2022/09/23 09:46:15;;;;;;;;;;;21.20;41.60;;;;;;485097;245;1259;-51
2022/09/23 09:48:17;;;;;;;;;;;21.20;41.60;;;;;;485099;245;1245;-50
2022/09/23 09:50:20;;;;;;;;;;;21.10;41.60;;;;;;485129;245;1259;-51
2022/09/23 09:52:20;;;;;;;;;;;21.20;41.60;;;;;;484957;246;1861;-51
2022/09/23 09:54:21;;;;;;;;;;;21.20;41.60;;;;;;485046;245;1281;-51
2022/09/23 09:56:25;;;;;;;;;;;21.20;41.60;;;;;;485042;245;1443;-51
2022/09/23 09:58:24;;;;;;;;;;;21.20;41.60;;;;;;484803;246;2187;-50
2022/09/23 10:00:25;;;;;;;;;;;21.20;41.70;;;;;;485042;245;1248;-50
2022/09/23 10:02:26;;;;;;;;;;;21.20;41.70;;;;;;485154;245;1237;-51
2022/09/23 10:04:28;;;;;;;;;;;21.10;41.60;;;;;;485092;245;1234;-50
2022/09/23 10:06:30;;;;;;;;;;;21.20;41.60;;;;;;485466;245;1285;-51
2022/09/23 10:08:32;;;;;;;;;;;21.20;41.60;;;;;;485129;245;2249;-50
2022/09/23 10:10:33;;;;;;;;;;;21.10;41.60;;;;;;485073;245;2200;-51
2022/09/23 10:12:34;;;;;;;;;;;21.10;41.60;;;;;;485161;245;1239;-50
2022/09/23 10:14:36;;;;;;;;;;;21.20;41.70;;;;;;485431;245;1207;-51
2022/09/23 10:16:37;;;;;;;;;;;21.20;41.70;;;;;;485352;245;2402;-51
2022/09/23 10:18:38;;;;;;;;;;;21.20;41.70;;;;;;485098;245;2195;-51
2022/09/23 10:20:39;;;;;;;;;;;21.20;41.70;;;;;;485418;245;1534;-50
2022/09/23 10:22:41;;;;;;;;;;;21.20;41.70;;;;;;485235;245;1582;-51
2022/09/23 10:24:42;;;;;;;;;;;21.10;41.60;;;;;;485184;245;2182;-51
2022/09/23 10:26:43;;;;;;;;;;;21.20;41.70;;;;;;485098;245;1284;-51
2022/09/23 10:28:45;;;;;;;;;;;21.20;41.70;;;;;;485072;245;1284;-51
2022/09/23 10:30:46;;;;;;;;;;;21.20;41.70;;;;;;485197;245;1184;-50
2022/09/23 10:32:47;;;;;;;;;;;21.20;41.70;;;;;;485166;245;1228;-50
2022/09/23 10:34:49;;;;;;;;;;;21.20;41.70;;;;;;485346;245;1305;-51
2022/09/23 10:36:50;;;;;;;;;;;21.10;41.70;;;;;;485134;245;1240;-51
2022/09/23 10:38:51;;;;;;;;;;;21.20;41.80;;;;;;485084;245;2211;-51
2022/09/23 10:47:50;;;;;;;;;;;21.20;41.80;;;;;;485013;246;1263;-50
2022/09/23 10:49:51;;;;;;;;;;;21.10;41.70;;;;;;485363;245;1220;-51
2022/09/23 10:51:53;;;;;;;;;;;21.20;41.80;;;;;;485577;245;1252;-51
2022/09/23 10:53:55;;;;;;;;;;;21.20;41.80;;;;;;485078;245;2340;-50
2022/09/23 10:55:56;;;;;;;;;;;21.20;41.70;;;;;;485295;245;1288;-51
2022/09/23 10:57:58;;;;;;;;;;;21.20;41.80;;;;;;485094;245;2208;-51
2022/09/23 10:59:59;;;;;;;;;;;21.10;41.70;;;;;;484953;246;1746;-51
2022/09/23 11:02:00;;;;;;;;;;;21.20;41.80;;;;;;485148;245;2288;-51
2022/09/23 11:04:01;;;;;;;;;;;21.20;41.80;;;;;;485073;245;1462;-51
2022/09/23 11:06:03;;;;;;;;;;;21.20;41.80;;;;;;485163;245;1277;-51
2022/09/23 11:08:04;;;;;;;;;;;21.20;41.80;;;;;;485069;245;1179;-50
2022/09/23 11:10:05;;;;;;;;;;;21.20;41.80;;;;;;485245;245;1214;-50
2022/09/23 11:12:07;;;;;;;;;;;21.20;41.80;;;;;;485260;245;1237;-51
2022/09/23 11:14:12;;;;;;;;;;;21.20;41.80;;;;;;485303;245;1238;-51
2022/09/23 11:16:09;;;;;;;;;;;21.20;41.80;;;;;;485280;246;1897;-51
2022/09/23 11:18:11;;;;;;;;;;;21.20;41.90;;;;;;485170;245;2203;-50
2022/09/23 11:20:12;;;;;;;;;;;21.20;41.90;;;;;;485253;245;1152;-51
2022/09/23 11:22:14;;;;;;;;;;;21.20;41.90;;;;;;485241;245;1235;-51
2022/09/23 11:24:15;;;;;;;;;;;21.20;41.90;;;;;;485140;246;2314;-51
2022/09/23 11:26:16;;;;;;;;;;;21.20;41.90;;;;;;485405;245;1267;-50
2022/09/23 11:28:17;;;;;;;;;;;21.20;41.90;;;;;;485270;245;1239;-50
2022/09/23 11:30:19;;;;;;;;;;;21.20;41.90;;;;;;485315;245;1195;-51
2022/09/23 11:32:20;;;;;;;;;;;21.20;41.90;;;;;;485143;245;1291;-50
2022/09/23 11:34:24;;;;;;;;;;;21.20;41.90;;;;;;485119;245;1209;-50
2022/09/23 11:36:23;;;;;;;;;;;21.20;41.90;;;;;;485018;246;2036;-51
2022/09/23 11:38:25;;;;;;;;;;;21.20;41.90;;;;;;485283;245;2148;-51
2022/09/23 11:40:26;;;;;;;;;;;21.20;41.90;;;;;;485413;245;1280;-50
2022/09/23 11:42:27;;;;;;;;;;;21.20;41.90;;;;;;485407;245;1179;-50
2022/09/23 11:44:28;;;;;;;;;;;21.20;41.90;;;;;;485009;245;1132;-50
2022/09/23 11:46:30;;;;;;;;;;;21.20;41.90;;;;;;485449;245;1193;-51
2022/09/23 11:48:31;;;;;;;;;;;21.20;42.00;;;;;;485698;245;1148;-52
2022/09/23 11:50:32;;;;;;;;;;;21.20;41.90;;;;;;485226;245;1185;-50
2022/09/23 11:52:34;;;;;;;;;;;21.20;42.00;;;;;;485041;245;1137;-50
2022/09/23 11:54:35;;;;;;;;;;;21.20;42.00;;;;;;485393;245;1076;-51
2022/09/23 11:56:37;;;;;;;;;;;21.20;42.00;;;;;;485348;243;1114;-50
2022/09/23 11:58:38;;;;;;;;;;;21.20;41.90;;;;;;485562;245;2183;-51
2022/09/23 12:00:39;;;;;;;;;;;21.20;41.90;;;;;;485282;245;2493;-51
2022/09/23 12:02:40;;;;;;;;;;;21.20;41.90;;;;;;485172;245;1359;-49
2022/09/23 12:04:42;;;;;;;;;;;21.10;41.90;;;;;;485151;245;1173;-50
2022/09/23 12:06:43;;;;;;;;;;;21.20;42.00;;;;;;485181;245;1218;-50
2022/09/23 12:08:44;;;;;;;;;;;21.20;42.00;;;;;;485163;245;1323;-51